Time;durP1;ratioP1;P1;durP2;ratioP2;P2;SDS_P1;SDS_P2;PMS_P1;PMS_P2;Temp;Humidity;BMP_temperature;BMP_pressure;BME280_temperature;BME280_humidity;BME280_pressure;Samples;Min_cycle;Max_cycle;Signal;HPM_P1;HPM_P2
2022/08/10 00:01:33;;;;;;;1.70;1.20;;;15.30;99.90;;;;;;5028293;28;20034;-53
2022/08/10 00:04:00;;;;;;;1.77;1.50;;;15.30;99.90;;;;;;5029474;28;20052;-51
2022/08/10 00:06:25;;;;;;;2.05;1.55;;;15.30;99.90;;;;;;5023579;28;20020;-54
2022/08/10 00:08:51;;;;;;;1.40;1.30;;;15.30;99.90;;;;;;5027555;28;20072;-50
2022/08/10 00:11:17;;;;;;;1.50;1.30;;;15.20;99.90;;;;;;5021064;28;20052;-49
2022/08/10 00:13:43;;;;;;;2.10;1.50;;;15.20;99.90;;;;;;5028195;28;20041;-48
2022/08/10 00:16:09;;;;;;;2.70;1.30;;;15.20;99.90;;;;;;5029477;28;20039;-48
2022/08/10 00:18:34;;;;;;;1.30;1.20;;;15.20;99.90;;;;;;5029534;28;20426;-48
2022/08/10 00:21:00;;;;;;;1.55;1.45;;;15.10;99.90;;;;;;5029821;28;20045;-53
2022/08/10 00:23:25;;;;;;;1.38;1.27;;;15.10;99.90;;;;;;5021859;28;20029;-49
2022/08/10 00:25:52;;;;;;;1.30;1.20;;;15.10;99.90;;;;;;5029227;28;20384;-48
2022/08/10 00:28:17;;;;;;;2.13;1.23;;;15.10;99.90;;;;;;5029405;28;20498;-51
2022/08/10 00:30:43;;;;;;;1.67;1.58;;;15.10;99.90;;;;;;5028788;28;20033;-51
2022/08/10 00:33:09;;;;;;;4.22;1.83;;;15.10;99.90;;;;;;5027788;28;20108;-48
2022/08/10 00:35:34;;;;;;;1.83;1.50;;;15.10;99.90;;;;;;5024969;28;20037;-50
2022/08/10 00:38:00;;;;;;;2.17;1.23;;;15.00;99.90;;;;;;5028593;28;20052;-51
2022/08/10 00:40:26;;;;;;;2.95;1.60;;;15.00;99.90;;;;;;5024112;28;20110;-49
2022/08/10 00:42:51;;;;;;;1.83;1.38;;;15.00;99.90;;;;;;5028131;28;20036;-48
2022/08/10 00:45:17;;;;;;;1.45;1.35;;;14.90;99.90;;;;;;5029106;28;20037;-51
2022/08/10 00:47:43;;;;;;;1.77;1.27;;;15.00;99.90;;;;;;5028605;28;20017;-52
2022/08/10 00:50:09;;;;;;;1.65;1.52;;;14.90;99.90;;;;;;5028756;28;20018;-51
2022/08/10 00:52:35;;;;;;;1.50;1.40;;;14.90;99.90;;;;;;5028186;28;20120;-48
2022/08/10 00:55:03;;;;;;;1.83;1.70;;;14.80;99.90;;;;;;5028682;28;20044;-56
2022/08/10 00:57:29;;;;;;;1.55;1.45;;;14.80;99.90;;;;;;5028588;28;20076;-57
2022/08/10 00:59:55;;;;;;;2.33;1.38;;;14.70;99.90;;;;;;5024036;28;20055;-55
2022/08/10 01:02:20;;;;;;;1.45;1.35;;;14.70;99.90;;;;;;5025569;28;20777;-49
2022/08/10 01:04:47;;;;;;;1.60;1.50;;;14.60;99.90;;;;;;5009209;28;20029;-48
2022/08/10 01:07:34;;;;;;;2.10;1.40;;;14.60;99.90;;;;;;5004566;28;20037;-49
2022/08/10 01:10:20;;;;;;;1.48;1.38;;;14.60;99.90;;;;;;5024761;28;20021;-51
2022/08/10 01:13:13;;;;;;;1.80;1.65;;;14.60;99.90;;;;;;5007207;28;20546;-54
2022/08/10 01:15:56;;;;;;;1.48;1.30;;;14.40;99.90;;;;;;5021198;28;20030;-52
2022/08/10 01:18:38;;;;;;;2.28;1.83;;;14.40;99.90;;;;;;5028282;28;20342;-54
2022/08/10 01:21:31;;;;;;;1.33;1.20;;;14.40;99.90;;;;;;5028231;28;20431;-52
2022/08/10 01:24:17;;;;;;;3.13;1.63;;;14.30;99.90;;;;;;5025644;28;20893;-48
2022/08/10 01:26:56;;;;;;;3.40;1.67;;;14.30;99.90;;;;;;5024312;28;20025;-50
2022/08/10 01:29:53;;;;;;;2.00;1.40;;;14.20;99.90;;;;;;5025040;28;20037;-48
2022/08/10 01:32:31;;;;;;;1.60;1.35;;;14.20;99.90;;;;;;5027850;28;20492;-53
2022/08/10 01:35:08;;;;;;;1.50;1.40;;;14.20;99.90;;;;;;5021540;28;20018;-54
2022/08/10 01:37:42;;;;;;;1.70;1.60;;;14.10;99.90;;;;;;5028840;28;20029;-55
2022/08/10 01:40:12;;;;;;;1.80;1.55;;;14.10;99.90;;;;;;5027043;28;20033;-54
2022/08/10 01:42:41;;;;;;;1.63;1.23;;;14.10;99.90;;;;;;5021652;28;20112;-54
2022/08/10 01:45:09;;;;;;;2.88;1.98;;;14.00;99.90;;;;;;5026981;28;20060;-55
2022/08/10 01:50:36;;;;;;;1.48;1.35;;;14.00;99.90;;;;;;5027611;28;20117;-54
2022/08/10 01:53:09;;;;;;;1.75;1.40;;;14.00;99.90;;;;;;5027561;28;20017;-54
2022/08/10 01:55:37;;;;;;;3.72;1.45;;;14.00;99.90;;;;;;5026720;28;20037;-55
2022/08/10 01:58:05;;;;;;;1.75;1.65;;;13.90;99.90;;;;;;5025062;28;20025;-54
2022/08/10 02:00:34;;;;;;;1.90;1.60;;;14.00;99.90;;;;;;5029175;28;20656;-55
2022/08/10 02:03:03;;;;;;;2.85;2.08;;;13.90;99.90;;;;;;5031200;28;20029;-51
2022/08/10 02:05:32;;;;;;;1.90;1.80;;;13.90;99.90;;;;;;5031982;28;20619;-51
2022/08/10 02:07:59;;;;;;;3.45;1.70;;;13.90;99.90;;;;;;5027815;28;20072;-55
2022/08/10 02:10:27;;;;;;;1.83;1.73;;;13.90;99.90;;;;;;5026525;28;20036;-58
2022/08/10 02:12:56;;;;;;;2.25;1.50;;;13.80;99.90;;;;;;5031077;28;20667;-49
2022/08/10 02:15:26;;;;;;;1.60;1.50;;;13.80;99.90;;;;;;5026633;28;20119;-51
2022/08/10 02:17:56;;;;;;;1.92;1.63;;;13.80;99.90;;;;;;5031476;28;20488;-53
2022/08/10 02:20:24;;;;;;;2.20;1.70;;;13.80;99.90;;;;;;5030098;28;20489;-55
2022/08/10 02:22:59;;;;;;;1.85;1.60;;;13.80;99.90;;;;;;5030647;28;20369;-52
2022/08/10 02:25:26;;;;;;;2.10;1.90;;;13.80;99.90;;;;;;5031495;28;20033;-52
2022/08/10 02:27:53;;;;;;;2.75;1.85;;;13.70;99.90;;;;;;5013805;28;20264;-56
2022/08/10 02:30:19;;;;;;;1.92;1.55;;;13.70;99.90;;;;;;5031844;28;20033;-49
2022/08/10 02:32:47;;;;;;;1.63;1.52;;;13.80;99.90;;;;;;5026342;28;20025;-49
2022/08/10 02:35:14;;;;;;;3.70;2.00;;;13.80;99.90;;;;;;5031777;28;20075;-51
2022/08/10 02:37:45;;;;;;;2.42;1.80;;;13.70;99.90;;;;;;5031274;28;20399;-53
2022/08/10 02:40:11;;;;;;;2.25;2.05;;;13.70;99.90;;;;;;5025688;28;20099;-52
2022/08/10 02:42:51;;;;;;;2.28;1.70;;;13.70;99.90;;;;;;5029965;28;20025;-58
2022/08/10 02:45:22;;;;;;;2.13;1.92;;;13.70;99.90;;;;;;5026539;28;20045;-53
2022/08/10 02:48:04;;;;;;;2.38;2.10;;;13.60;99.90;;;;;;5031161;28;20041;-51
2022/08/10 02:50:34;;;;;;;1.55;1.45;;;13.70;99.90;;;;;;5025834;28;20208;-48
2022/08/10 02:53:04;;;;;;;2.38;2.08;;;13.60;99.90;;;;;;5030652;28;20026;-48
2022/08/10 02:55:45;;;;;;;2.08;1.80;;;13.70;99.90;;;;;;5031035;28;20369;-53
2022/08/10 02:58:21;;;;;;;2.15;2.00;;;13.70;99.90;;;;;;5005969;28;20030;-54
2022/08/10 03:00:55;;;;;;;1.83;1.67;;;13.70;99.90;;;;;;5031156;28;20124;-55
2022/08/10 03:03:29;;;;;;;1.95;1.75;;;13.60;99.90;;;;;;5028634;28;20042;-55
2022/08/10 03:05:59;;;;;;;1.98;1.73;;;13.60;99.90;;;;;;5031245;28;20512;-51
2022/08/10 03:08:29;;;;;;;1.83;1.73;;;13.60;99.90;;;;;;5011714;28;20033;-51
2022/08/10 03:10:58;;;;;;;2.28;2.08;;;13.60;99.90;;;;;;5030234;28;20032;-55
2022/08/10 03:13:25;;;;;;;1.77;1.67;;;13.50;99.90;;;;;;5030208;28;20025;-53
2022/08/10 03:15:51;;;;;;;2.10;1.90;;;13.50;99.90;;;;;;5029495;28;20101;-49
2022/08/10 03:18:18;;;;;;;2.55;2.28;;;13.50;99.90;;;;;;5025566;28;20056;-50
2022/08/10 03:20:45;;;;;;;2.22;1.83;;;13.50;99.90;;;;;;5030260;28;20520;-51
2022/08/10 03:23:16;;;;;;;2.70;1.80;;;13.40;99.90;;;;;;5023632;28;20403;-49
2022/08/10 03:25:43;;;;;;;1.75;1.65;;;13.40;99.90;;;;;;5026778;28;20500;-54
2022/08/10 03:28:10;;;;;;;2.30;2.03;;;13.40;99.90;;;;;;5030931;28;20398;-49
2022/08/10 03:30:36;;;;;;;2.60;2.40;;;13.40;99.90;;;;;;5027744;28;20026;-53
2022/08/10 03:33:04;;;;;;;2.38;2.17;;;13.40;99.90;;;;;;5028017;28;20030;-55
2022/08/10 03:35:30;;;;;;;2.30;2.10;;;13.40;99.90;;;;;;5027251;28;20048;-53
2022/08/10 03:37:56;;;;;;;2.95;2.30;;;13.40;99.90;;;;;;5029049;28;20032;-52
2022/08/10 03:40:22;;;;;;;2.42;1.80;;;13.40;99.90;;;;;;5021344;28;20026;-48
2022/08/10 03:42:49;;;;;;;2.53;1.70;;;13.40;99.90;;;;;;5028673;28;20017;-52
2022/08/10 03:45:16;;;;;;;3.22;2.10;;;13.40;99.90;;;;;;5019181;28;20049;-53
2022/08/10 03:47:43;;;;;;;2.35;1.95;;;13.40;99.90;;;;;;5027136;28;20040;-52
2022/08/10 03:50:11;;;;;;;1.85;1.67;;;13.40;99.90;;;;;;5030263;28;20039;-49
2022/08/10 03:52:37;;;;;;;2.47;2.10;;;13.40;99.90;;;;;;5029120;28;20113;-53
2022/08/10 03:55:04;;;;;;;3.10;2.28;;;13.40;99.90;;;;;;5030368;28;20033;-52
2022/08/10 03:57:30;;;;;;;2.38;2.17;;;13.40;99.90;;;;;;5025022;28;20088;-57
2022/08/10 03:59:56;;;;;;;2.40;2.20;;;13.40;99.90;;;;;;5029989;28;20029;-55
2022/08/10 04:02:22;;;;;;;2.72;2.33;;;13.40;99.90;;;;;;5025313;28;20083;-49
2022/08/10 04:04:48;;;;;;;2.70;1.80;;;13.40;99.90;;;;;;5028870;28;20055;-49
2022/08/10 04:07:13;;;;;;;3.75;2.15;;;13.40;99.90;;;;;;5029162;28;20033;-50
2022/08/10 04:09:40;;;;;;;2.08;1.90;;;13.30;99.90;;;;;;5027557;28;20163;-52
2022/08/10 04:12:06;;;;;;;3.17;2.10;;;13.40;99.90;;;;;;5028818;28;20026;-49
2022/08/10 04:14:32;;;;;;;2.28;2.08;;;13.40;99.90;;;;;;5029160;28;20104;-54
2022/08/10 04:16:57;;;;;;;3.47;1.83;;;13.30;99.90;;;;;;5009004;28;20607;-55
2022/08/10 04:19:24;;;;;;;3.55;2.33;;;13.30;99.90;;;;;;5029596;28;20037;-57
2022/08/10 04:22:03;;;;;;;3.15;2.35;;;13.30;99.90;;;;;;5028793;28;20026;-54
2022/08/10 04:24:32;;;;;;;3.58;2.17;;;13.30;99.90;;;;;;5028303;28;20195;-53
2022/08/10 04:26:59;;;;;;;7.07;2.15;;;13.30;99.90;;;;;;5027921;28;20048;-52
2022/08/10 04:29:24;;;;;;;2.33;2.13;;;13.40;99.90;;;;;;5029588;28;20021;-52
2022/08/10 04:31:51;;;;;;;3.03;1.92;;;13.40;99.90;;;;;;5028057;28;20048;-53
2022/08/10 04:34:19;;;;;;;2.20;2.00;;;13.40;99.90;;;;;;5021369;28;20099;-57
2022/08/10 04:36:46;;;;;;;5.45;2.10;;;13.40;99.90;;;;;;5022919;28;20103;-48
2022/08/10 04:39:12;;;;;;;2.72;2.20;;;13.40;99.90;;;;;;5028925;28;20037;-56
2022/08/10 04:41:38;;;;;;;2.70;1.98;;;13.40;99.90;;;;;;5021694;28;20120;-53
2022/08/10 04:44:04;;;;;;;2.08;1.88;;;13.50;99.90;;;;;;5023869;28;20061;-55
2022/08/10 04:46:29;;;;;;;2.38;2.17;;;13.40;99.90;;;;;;5023179;28;20064;-52
2022/08/10 04:48:55;;;;;;;3.13;2.08;;;13.50;99.90;;;;;;5024005;28;20113;-50
2022/08/10 04:51:21;;;;;;;4.15;2.25;;;13.50;99.90;;;;;;5010687;28;20025;-50
2022/08/10 04:53:48;;;;;;;2.10;1.90;;;13.50;99.90;;;;;;5028193;28;20112;-50
2022/08/10 04:56:14;;;;;;;2.08;1.98;;;13.50;99.90;;;;;;5009754;28;20527;-52
2022/08/10 04:58:40;;;;;;;2.20;2.00;;;13.60;99.90;;;;;;5026501;28;20037;-49
2022/08/10 05:01:05;;;;;;;2.20;1.80;;;13.60;99.90;;;;;;5028537;28;20029;-56
2022/08/10 05:03:31;;;;;;;2.38;2.17;;;13.60;99.90;;;;;;5028199;28;20595;-51
2022/08/10 05:05:56;;;;;;;2.33;2.10;;;13.60;99.90;;;;;;5028763;28;20037;-54
2022/08/10 05:08:22;;;;;;;2.20;1.70;;;13.60;99.90;;;;;;5008392;28;20129;-51
2022/08/10 05:10:48;;;;;;;4.45;2.15;;;13.70;99.90;;;;;;5028743;28;20036;-52
2022/08/10 05:13:13;;;;;;;2.78;2.50;;;13.70;99.90;;;;;;5027956;28;20033;-49
2022/08/10 05:15:42;;;;;;;4.82;3.00;;;13.80;99.90;;;;;;5021523;28;20022;-55
2022/08/10 05:18:08;;;;;;;3.92;3.50;;;13.90;99.90;;;;;;5010872;28;20067;-49
2022/08/10 05:20:33;;;;;;;5.85;3.35;;;14.00;99.90;;;;;;5028002;28;20030;-50
2022/08/10 05:22:59;;;;;;;2.95;2.67;;;14.10;99.90;;;;;;5026998;28;20117;-51
2022/08/10 05:25:25;;;;;;;4.55;3.17;;;14.10;99.90;;;;;;5026703;28;20056;-49
2022/08/10 05:27:50;;;;;;;2.92;2.60;;;14.20;99.90;;;;;;5010814;28;20033;-49
2022/08/10 05:30:19;;;;;;;3.75;3.45;;;14.20;99.90;;;;;;5028087;28;20034;-49
2022/08/10 05:32:45;;;;;;;3.55;3.17;;;14.30;99.90;;;;;;5028357;28;20049;-52
2022/08/10 05:35:11;;;;;;;3.70;2.88;;;14.30;99.90;;;;;;5024748;28;20022;-49
2022/08/10 05:37:37;;;;;;;2.88;2.58;;;14.50;99.90;;;;;;5026168;28;20034;-48
2022/08/10 05:40:05;;;;;;;2.88;2.67;;;14.60;99.90;;;;;;5010281;28;20117;-50
2022/08/10 05:42:31;;;;;;;5.47;2.85;;;14.70;99.90;;;;;;5022433;28;20034;-49
2022/08/10 05:44:57;;;;;;;3.83;3.42;;;14.80;99.90;;;;;;5025780;28;20036;-53
2022/08/10 05:47:23;;;;;;;4.28;3.67;;;14.80;99.90;;;;;;5025047;28;20045;-50
2022/08/10 05:49:49;;;;;;;2.97;2.78;;;14.90;99.90;;;;;;5020358;28;20017;-52
2022/08/10 05:52:16;;;;;;;2.90;2.70;;;15.00;99.90;;;;;;5017897;28;20025;-50
2022/08/10 05:54:43;;;;;;;4.32;3.08;;;15.20;99.90;;;;;;5028369;28;20124;-55
2022/08/10 05:57:10;;;;;;;3.05;2.85;;;15.30;99.90;;;;;;5026431;28;20026;-51
2022/08/10 05:59:43;;;;;;;4.10;2.35;;;15.40;99.90;;;;;;5028097;28;20029;-51
2022/08/10 06:02:09;;;;;;;4.97;3.20;;;15.50;99.90;;;;;;5027324;28;20037;-55
2022/08/10 06:04:43;;;;;;;3.25;2.88;;;15.60;99.90;;;;;;5027768;28;20079;-53
2022/08/10 06:07:12;;;;;;;3.35;2.30;;;15.70;99.90;;;;;;5027240;28;20192;-56
2022/08/10 06:09:40;;;;;;;2.75;2.55;;;15.80;99.90;;;;;;5027124;28;20064;-53
2022/08/10 06:12:07;;;;;;;6.55;3.30;;;15.90;99.90;;;;;;5027520;28;20026;-52
2022/08/10 06:17:19;;;;;;;2.88;2.63;;;16.10;99.90;;;;;;5016933;28;20769;-51
2022/08/10 06:19:45;;;;;;;2.50;2.30;;;16.20;99.90;;;;;;5019549;28;20046;-50
2022/08/10 06:22:11;;;;;;;5.32;2.85;;;16.30;99.90;;;;;;5026796;28;20053;-52
2022/08/10 06:24:40;;;;;;;5.00;3.38;;;16.40;99.90;;;;;;5027435;28;20068;-55
2022/08/10 06:27:06;;;;;;;2.65;2.45;;;16.60;99.90;;;;;;5028224;28;20025;-52
2022/08/10 06:29:35;;;;;;;3.10;2.30;;;16.70;99.90;;;;;;5027547;28;20021;-51
2022/08/10 06:32:02;;;;;;;3.78;2.28;;;16.90;99.90;;;;;;5018513;28;20503;-56
2022/08/10 06:34:34;;;;;;;5.35;2.55;;;17.00;99.90;;;;;;5026615;28;20041;-56
2022/08/10 06:37:05;;;;;;;3.20;2.60;;;17.20;99.90;;;;;;5027801;28;20025;-56
2022/08/10 06:39:31;;;;;;;2.10;1.90;;;17.40;99.90;;;;;;5028264;28;20060;-53
2022/08/10 06:42:10;;;;;;;4.30;2.50;;;17.50;99.90;;;;;;5026868;28;20029;-55
2022/08/10 06:44:45;;;;;;;2.38;2.17;;;17.70;99.90;;;;;;5026820;28;20025;-52
2022/08/10 06:47:12;;;;;;;;;;;17.90;99.90;;;;;;5028711;28;20028;-59
2022/08/10 06:49:38;;;;;;;3.67;1.90;;;18.00;99.90;;;;;;4989719;28;20502;-53
2022/08/10 06:52:06;;;;;;;3.22;1.90;;;18.20;99.90;;;;;;5030317;28;20661;-57
2022/08/10 06:54:32;;;;;;;2.00;1.73;;;18.30;99.90;;;;;;5031388;28;20446;-53
2022/08/10 06:57:00;;;;;;;4.47;2.08;;;18.50;99.90;;;;;;5013371;28;20037;-59
2022/08/10 06:59:36;;;;;;;4.10;1.58;;;18.60;99.90;;;;;;5013392;28;20033;-54
2022/08/10 07:02:09;;;;;;;1.80;1.67;;;18.70;99.90;;;;;;5030508;28;20095;-56
2022/08/10 07:04:40;;;;;;;2.08;1.58;;;18.90;99.90;;;;;;5031024;28;20029;-59
2022/08/10 07:07:08;;;;;;;1.60;1.50;;;19.10;99.90;;;;;;5029811;28;20388;-58
2022/08/10 07:09:38;;;;;;;1.52;1.42;;;19.30;99.90;;;;;;5029245;28;20026;-57
2022/08/10 07:12:09;;;;;;;1.60;1.50;;;19.40;99.90;;;;;;5027697;28;20040;-58
2022/08/10 07:14:43;;;;;;;2.47;1.83;;;19.60;99.90;;;;;;5030749;28;20116;-59
2022/08/10 07:17:16;;;;;;;1.85;1.50;;;19.80;99.90;;;;;;5029687;28;20033;-55
2022/08/10 07:19:46;;;;;;;2.03;1.48;;;19.90;99.90;;;;;;5027104;28;20541;-58
2022/08/10 07:22:15;;;;;;;1.38;1.20;;;20.00;99.90;;;;;;5024442;28;20029;-56
2022/08/10 07:24:42;;;;;;;4.00;1.45;;;20.20;99.90;;;;;;5030421;28;20036;-58
2022/08/10 07:27:09;;;;;;;1.80;1.30;;;20.30;99.90;;;;;;5030461;28;20522;-54
2022/08/10 07:29:35;;;;;;;1.95;1.33;;;20.40;99.90;;;;;;5030749;28;20403;-57
2022/08/10 07:32:03;;;;;;;1.60;1.50;;;20.60;99.90;;;;;;5024540;28;20032;-55
2022/08/10 07:34:30;;;;;;;3.13;1.80;;;20.70;99.90;;;;;;5030767;28;20114;-50
2022/08/10 07:37:00;;;;;;;1.95;1.27;;;20.80;99.90;;;;;;5008980;28;20028;-53
2022/08/10 07:39:29;;;;;;;2.75;1.38;;;21.00;99.90;;;;;;5030601;28;20067;-50
2022/08/10 07:41:56;;;;;;;2.28;1.15;;;21.10;99.90;;;;;;5021944;28;20056;-55
2022/08/10 07:44:26;;;;;;;1.38;1.27;;;21.20;99.90;;;;;;5030191;28;20025;-55
2022/08/10 07:46:55;;;;;;;3.22;1.23;;;21.30;99.90;;;;;;5023412;28;20053;-52
2022/08/10 07:49:25;;;;;;;1.27;1.17;;;21.40;99.90;;;;;;5030382;28;20010;-53
2022/08/10 07:51:52;;;;;;;2.42;1.00;;;21.50;99.90;;;;;;5028905;28;20117;-50
2022/08/10 07:54:21;;;;;;;0.80;0.80;;;21.60;99.90;;;;;;5012171;28;20522;-52
2022/08/10 07:56:50;;;;;;;3.15;1.10;;;21.70;99.90;;;;;;5029808;28;20063;-55
2022/08/10 07:59:34;;;;;;;1.10;1.10;;;21.80;99.90;;;;;;5024318;28;20475;-55
2022/08/10 08:02:01;;;;;;;1.30;0.80;;;21.80;99.90;;;;;;5029098;28;20091;-56
2022/08/10 08:04:28;;;;;;;0.82;0.82;;;22.00;99.90;;;;;;5029372;28;20060;-50
2022/08/10 08:06:57;;;;;;;1.10;0.95;;;22.30;99.90;;;;;;5029968;28;20026;-54
2022/08/10 08:09:25;;;;;;;1.77;1.27;;;22.50;99.90;;;;;;5030031;28;20025;-50
2022/08/10 08:11:52;;;;;;;1.95;0.90;;;22.70;99.90;;;;;;5026944;28;20025;-53
2022/08/10 08:14:20;;;;;;;1.20;1.10;;;23.00;99.90;;;;;;5030027;28;20030;-52
2022/08/10 08:16:50;;;;;;;1.70;0.90;;;23.20;99.90;;;;;;5026747;28;20045;-51
2022/08/10 08:19:18;;;;;;;5.07;1.83;;;23.40;99.90;;;;;;5021036;28;20120;-52
2022/08/10 08:21:44;;;;;;;0.60;0.60;;;23.40;99.90;;;;;;5028336;28;20025;-50
2022/08/10 08:24:14;;;;;;;1.05;0.95;;;23.50;98.60;;;;;;5029900;28;20021;-50
2022/08/10 08:26:41;;;;;;;1.25;0.68;;;23.60;99.80;;;;;;5029413;28;20026;-50
2022/08/10 08:29:09;;;;;;;3.28;0.85;;;23.80;99.90;;;;;;5029416;28;20033;-55
2022/08/10 08:31:36;;;;;;;1.92;0.95;;;24.00;99.90;;;;;;5023392;28;20034;-52
2022/08/10 08:34:03;;;;;;;0.82;0.60;;;24.20;98.40;;;;;;5028625;28;20048;-55
2022/08/10 08:36:30;;;;;;;1.08;0.68;;;24.30;96.00;;;;;;5028010;28;20037;-54
2022/08/10 08:38:55;;;;;;;1.15;0.60;;;24.40;96.80;;;;;;5028375;28;20029;-55
2022/08/10 08:41:58;;;;;;;0.55;0.55;;;24.60;96.50;;;;;;5027466;28;20452;-58
2022/08/10 08:44:38;;;;;;;1.13;0.68;;;24.60;95.00;;;;;;5021491;28;20116;-56
2022/08/10 08:47:51;;;;;;;1.33;0.82;;;24.80;93.50;;;;;;5028901;28;20030;-54
2022/08/10 08:50:35;;;;;;;4.60;1.17;;;24.70;93.70;;;;;;4967219;28;20031;-54
2022/08/10 08:53:18;;;;;;;1.00;0.70;;;24.70;94.60;;;;;;5022662;28;20033;-55
2022/08/10 08:56:27;;;;;;;2.72;1.10;;;24.70;94.40;;;;;;5025165;28;20052;-54
2022/08/10 08:59:08;;;;;;;1.05;0.80;;;24.70;94.60;;;;;;5025157;28;20088;-49
2022/08/10 09:01:37;;;;;;;0.95;0.75;;;24.70;94.90;;;;;;5023235;28;20022;-49
2022/08/10 09:04:30;;;;;;;1.98;0.85;;;24.70;94.50;;;;;;5028708;28;20064;-52
2022/08/10 09:07:10;;;;;;;1.33;0.98;;;24.80;94.60;;;;;;5023066;28;20026;-50
2022/08/10 09:10:13;;;;;;;1.05;0.70;;;25.00;94.60;;;;;;5028477;28;20053;-51
2022/08/10 09:12:56;;;;;;;0.90;0.60;;;25.20;94.40;;;;;;5025701;28;20049;-58
2022/08/10 09:15:43;;;;;;;1.58;0.80;;;25.30;93.10;;;;;;5021163;28;20029;-51
2022/08/10 09:18:27;;;;;;;15.75;2.95;;;25.10;92.70;;;;;;5027562;28;20068;-60
2022/08/10 09:21:22;;;;;;;1.73;0.70;;;25.20;93.00;;;;;;5027723;28;20104;-55
2022/08/10 09:23:54;;;;;;;1.45;0.70;;;25.40;93.30;;;;;;5017469;28;20041;-53
2022/08/10 09:26:24;;;;;;;0.88;0.60;;;25.50;93.40;;;;;;5022331;28;20041;-51
2022/08/10 09:28:56;;;;;;;1.48;0.70;;;25.50;92.80;;;;;;5027880;28;20037;-53
2022/08/10 09:31:23;;;;;;;1.02;0.63;;;25.50;92.90;;;;;;5027825;28;20037;-58
2022/08/10 09:33:52;;;;;;;1.00;0.70;;;25.50;92.10;;;;;;5027913;28;20017;-57
2022/08/10 09:36:54;;;;;;;2.13;0.70;;;25.50;92.20;;;;;;5021117;28;20037;-53
2022/08/10 09:39:50;;;;;;;1.42;0.70;;;25.20;91.60;;;;;;5021457;28;20026;-49
2022/08/10 09:42:24;;;;;;;1.23;1.13;;;25.00;93.10;;;;;;5010220;28;20091;-58
2022/08/10 09:45:08;;;;;;;1.20;0.68;;;25.10;93.20;;;;;;5024456;28;20439;-54
2022/08/10 09:47:59;;;;;;;1.15;0.70;;;25.20;92.70;;;;;;5019853;28;20021;-56
2022/08/10 09:50:32;;;;;;;1.77;0.90;;;25.20;92.30;;;;;;4987367;28;20038;-52
2022/08/10 09:53:20;;;;;;;1.42;0.90;;;25.00;92.00;;;;;;5026432;28;20033;-50
2022/08/10 09:56:20;;;;;;;0.93;0.70;;;25.00;92.50;;;;;;5027559;28;20377;-52
2022/08/10 09:59:04;;;;;;;1.08;0.88;;;25.00;92.10;;;;;;5006408;28;20396;-55
2022/08/10 10:01:48;;;;;;;1.55;0.73;;;25.10;92.10;;;;;;5022787;28;20045;-55
2022/08/10 10:04:38;;;;;;;1.42;0.98;;;25.00;92.90;;;;;;5024552;28;20508;-55
2022/08/10 10:07:07;;;;;;;1.15;0.90;;;24.80;91.90;;;;;;5027058;28;20018;-58
2022/08/10 10:09:47;;;;;;;2.10;0.90;;;24.80;92.10;;;;;;5028016;28;20021;-56
2022/08/10 10:12:19;;;;;;;1.65;0.65;;;24.80;92.00;;;;;;5027484;28;20021;-54
2022/08/10 10:15:21;;;;;;;0.95;0.73;;;24.70;92.70;;;;;;5028146;28;20037;-55
2022/08/10 10:18:17;;;;;;;1.70;0.95;;;24.70;91.70;;;;;;5024755;28;20034;-55
2022/08/10 10:21:06;;;;;;;;;;;24.40;91.80;;;;;;5024904;28;20040;-54
2022/08/10 10:23:45;;;;;;;5.88;1.00;;;24.50;92.60;;;;;;5025122;28;19917;-53
2022/08/10 10:26:35;;;;;;;2.75;1.10;;;24.50;92.40;;;;;;5031386;28;20029;-57
2022/08/10 10:29:21;;;;;;;2.30;1.00;;;24.50;92.40;;;;;;5031659;28;20033;-56
2022/08/10 10:32:18;;;;;;;0.60;0.60;;;24.50;91.30;;;;;;5030287;28;20025;-56
2022/08/10 10:34:49;;;;;;;5.57;1.20;;;24.40;91.50;;;;;;5027176;28;20043;-56
2022/08/10 10:37:18;;;;;;;1.55;0.60;;;24.30;92.00;;;;;;5027379;28;20034;-57
2022/08/10 10:39:54;;;;;;;0.70;0.63;;;24.40;91.90;;;;;;5030402;28;20034;-56
2022/08/10 10:42:30;;;;;;;2.20;0.90;;;24.50;91.80;;;;;;5025526;28;20034;-56
2022/08/10 10:45:25;;;;;;;;;;;24.60;91.50;;;;;;5031568;28;20031;-56
2022/08/10 10:48:30;;;;;;;0.70;0.70;;;24.60;91.20;;;;;;5006417;28;19941;-57
2022/08/10 10:51:17;;;;;;;1.90;0.60;;;24.60;91.00;;;;;;4969244;28;20066;-56
2022/08/10 10:53:59;;;;;;;0.88;0.75;;;24.60;90.90;;;;;;5023141;28;20058;-55
2022/08/10 10:56:39;;;;;;;0.52;0.50;;;24.60;90.90;;;;;;5019518;28;20604;-55
2022/08/10 10:59:05;;;;;;;1.45;0.88;;;24.70;91.00;;;;;;5025044;28;20022;-57
2022/08/10 11:02:04;;;;;;;1.33;0.65;;;24.50;90.60;;;;;;5028905;28;20203;-56
2022/08/10 11:04:45;;;;;;;6.63;1.90;;;24.40;91.10;;;;;;5024345;28;20128;-57
2022/08/10 11:07:34;;;;;;;0.60;0.60;;;24.50;91.30;;;;;;5030209;28;20021;-54
2022/08/10 11:10:08;;;;;;;0.77;0.77;;;24.60;90.90;;;;;;5028753;28;20029;-53
2022/08/10 11:12:56;;;;;;;3.13;0.80;;;24.50;90.90;;;;;;5025894;28;20018;-53
2022/08/10 11:15:35;;;;;;;0.95;0.65;;;24.50;91.00;;;;;;5024139;28;20065;-55
2022/08/10 11:18:34;;;;;;;6.03;1.92;;;24.50;91.40;;;;;;5027810;28;20642;-52
2022/08/10 11:21:19;;;;;;;1.38;1.27;;;24.50;90.80;;;;;;5023727;28;20680;-55
2022/08/10 11:24:09;;;;;;;1.30;0.90;;;24.40;91.80;;;;;;5027468;28;20034;-51
2022/08/10 11:26:45;;;;;;;1.17;0.88;;;24.40;91.40;;;;;;5026702;28;20044;-54
2022/08/10 11:29:29;;;;;;;;;;;24.40;91.30;;;;;;5030761;28;20487;-55
2022/08/10 11:32:03;;;;;;;1.17;0.70;;;24.30;92.00;;;;;;5029373;28;20407;-56
2022/08/10 11:34:46;;;;;;;3.75;0.80;;;24.50;92.50;;;;;;5027668;28;20048;-57
2022/08/10 11:37:37;;;;;;;1.13;0.85;;;24.50;91.40;;;;;;5012455;28;20049;-50
2022/08/10 11:40:19;;;;;;;1.77;0.63;;;24.60;91.40;;;;;;5020751;28;20068;-53
2022/08/10 11:43:12;;;;;;;2.33;1.00;;;24.70;91.30;;;;;;5011708;28;20114;-49
2022/08/10 11:45:41;;;;;;;1.95;0.70;;;24.70;90.90;;;;;;5009829;28;20129;-52
2022/08/10 11:48:40;;;;;;;1.88;0.68;;;24.70;90.90;;;;;;5029941;28;20045;-55
2022/08/10 11:51:19;;;;;;;1.75;0.90;;;24.80;90.70;;;;;;4972729;28;20033;-52
2022/08/10 11:53:59;;;;;;;0.63;0.63;;;24.90;91.10;;;;;;5029972;28;20387;-55
2022/08/10 11:56:35;;;;;;;0.70;0.70;;;24.90;91.30;;;;;;5023443;28;20026;-57
2022/08/10 12:01:46;;;;;;;1.30;0.93;;;25.10;90.50;;;;;;5025330;28;20039;-54
2022/08/10 12:04:13;;;;;;;4.88;1.15;;;25.10;89.20;;;;;;5030125;28;20029;-52
2022/08/10 12:06:41;;;;;;;0.98;0.85;;;25.00;90.00;;;;;;5025865;28;20013;-50
2022/08/10 12:09:10;;;;;;;1.75;0.80;;;25.10;90.10;;;;;;5011959;28;20033;-51
2022/08/10 12:11:36;;;;;;;2.50;0.85;;;25.10;89.90;;;;;;5029351;28;20684;-55
2022/08/10 12:14:16;;;;;;;1.58;0.82;;;25.10;90.00;;;;;;5029923;28;20029;-56
2022/08/10 12:16:46;;;;;;;1.00;0.73;;;25.20;90.70;;;;;;5029833;28;20109;-55
2022/08/10 12:19:30;;;;;;;2.58;0.82;;;25.20;90.50;;;;;;5030008;28;20025;-51
2022/08/10 12:22:00;;;;;;;1.30;0.90;;;25.30;89.70;;;;;;5026851;28;20037;-58
2022/08/10 12:24:46;;;;;;;2.90;0.70;;;25.30;90.20;;;;;;5011240;28;20223;-58
2022/08/10 12:27:18;;;;;;;;;;;25.40;88.20;;;;;;5016151;28;20032;-55
2022/08/10 12:30:00;;;;;;;1.25;0.70;;;25.50;87.40;;;;;;5029334;28;19913;-55
2022/08/10 12:32:39;;;;;;;0.68;0.68;;;25.60;86.40;;;;;;5027796;28;20041;-59
2022/08/10 12:35:20;;;;;;;1.83;0.82;;;25.70;85.80;;;;;;5007558;28;20032;-54
2022/08/10 12:38:01;;;;;;;0.73;0.73;;;25.80;85.80;;;;;;5024965;28;20399;-54
2022/08/10 12:40:30;;;;;;;1.05;0.95;;;25.90;84.80;;;;;;5028481;28;20116;-54
2022/08/10 12:43:14;;;;;;;0.60;0.52;;;25.90;84.60;;;;;;5021979;28;20746;-52
2022/08/10 12:45:43;;;;;;;12.45;3.03;;;26.00;84.00;;;;;;5025323;28;20029;-56
2022/08/10 12:48:22;;;;;;;0.88;0.73;;;26.10;82.20;;;;;;5027369;28;20041;-58
2022/08/10 12:51:17;;;;;;;1.48;0.70;;;26.30;81.80;;;;;;5027147;28;20033;-50
2022/08/10 12:53:51;;;;;;;1.55;0.85;;;26.30;81.30;;;;;;5024950;28;20029;-51
2022/08/10 12:56:35;;;;;;;1.33;0.85;;;26.40;81.20;;;;;;5026905;28;20030;-54
2022/08/10 12:59:04;;;;;;;0.95;0.95;;;26.40;82.70;;;;;;5027796;28;20025;-57
2022/08/10 13:01:33;;;;;;;0.60;0.45;;;26.60;81.60;;;;;;5009154;28;20025;-51
2022/08/10 13:04:06;;;;;;;3.55;0.68;;;26.60;80.60;;;;;;5024485;28;20025;-55
2022/08/10 13:06:34;;;;;;;3.08;0.75;;;26.70;80.70;;;;;;5026481;28;20116;-51
2022/08/10 13:09:11;;;;;;;3.90;0.70;;;26.90;80.90;;;;;;5024297;28;20111;-52
2022/08/10 13:11:49;;;;;;;1.55;0.70;;;27.00;78.40;;;;;;5026088;28;20125;-55
2022/08/10 13:14:21;;;;;;;1.13;0.73;;;27.10;76.10;;;;;;5020887;28;20444;-52
2022/08/10 13:16:50;;;;;;;0.68;0.68;;;27.20;76.90;;;;;;5025178;28;20522;-56
2022/08/10 13:19:20;;;;;;;0.80;0.80;;;27.20;76.30;;;;;;5028142;28;20076;-53
2022/08/10 13:21:47;;;;;;;1.00;0.80;;;27.40;77.10;;;;;;5026599;28;20448;-56
2022/08/10 13:24:22;;;;;;;0.90;0.70;;;27.50;77.00;;;;;;5027360;28;20407;-53
2022/08/10 13:26:52;;;;;;;1.38;0.90;;;27.50;78.20;;;;;;5028656;28;20025;-53